sensor_id;sensor_type;location;lat;lon;timestamp;P1;durP1;ratioP1;P2;durP2;ratioP2
56381;SDS011;50261;51.150;4.470;2022-08-01T06:07:18;3.17;;;1.33;;
56381;SDS011;50261;51.150;4.470;2022-08-01T06:09:44;1.60;;;1.02;;
56381;SDS011;50261;51.150;4.470;2022-08-01T06:12:10;2.20;;;1.40;;
56381;SDS011;50261;51.150;4.470;2022-08-01T06:14:35;1.50;;;1.23;;
56381;SDS011;50261;51.150;4.470;2022-08-01T06:17:01;3.53;;;1.80;;
56381;SDS011;50261;51.150;4.470;2022-08-01T06:19:27;2.58;;;1.45;;
56381;SDS011;50261;51.150;4.470;2022-08-01T06:21:52;3.33;;;1.80;;
56381;SDS011;50261;51.150;4.470;2022-08-01T06:24:18;4.35;;;1.48;;
56381;SDS011;50261;51.150;4.470;2022-08-01T06:26:44;2.70;;;1.65;;
56381;SDS011;50261;51.150;4.470;2022-08-01T06:29:09;2.85;;;1.52;;
56381;SDS011;50261;51.150;4.470;2022-08-01T06:31:35;3.97;;;1.38;;
56381;SDS011;50261;51.150;4.470;2022-08-01T06:34:00;2.95;;;1.48;;
56381;SDS011;50261;51.150;4.470;2022-08-01T06:36:25;4.13;;;1.70;;
56381;SDS011;50261;51.150;4.470;2022-08-01T06:38:51;1.90;;;1.10;;
56381;SDS011;50261;51.150;4.470;2022-08-01T06:41:16;2.10;;;1.40;;
56381;SDS011;50261;51.150;4.470;2022-08-01T06:43:42;1.92;;;1.08;;
56381;SDS011;50261;51.150;4.470;2022-08-01T06:46:07;4.57;;;1.30;;
56381;SDS011;50261;51.150;4.470;2022-08-01T06:48:32;2.33;;;1.05;;
56381;SDS011;50261;51.150;4.470;2022-08-01T06:50:58;2.90;;;1.00;;
56381;SDS011;50261;51.150;4.470;2022-08-01T06:53:33;1.98;;;0.88;;
56381;SDS011;50261;51.150;4.470;2022-08-01T06:55:59;0.98;;;0.82;;
56381;SDS011;50261;51.150;4.470;2022-08-01T06:58:24;1.48;;;0.73;;
56381;SDS011;50261;51.150;4.470;2022-08-01T07:00:50;1.45;;;0.80;;
56381;SDS011;50261;51.150;4.470;2022-08-01T07:03:15;2.25;;;0.90;;
56381;SDS011;50261;51.150;4.470;2022-08-01T07:05:41;2.38;;;0.80;;
56381;SDS011;50261;51.150;4.470;2022-08-01T07:08:06;5.90;;;1.00;;
56381;SDS011;50261;51.150;4.470;2022-08-01T07:10:32;2.80;;;0.70;;
56381;SDS011;50261;51.150;4.470;2022-08-01T07:12:58;1.55;;;0.82;;
56381;SDS011;50261;51.150;4.470;2022-08-01T07:15:23;3.50;;;0.75;;
56381;SDS011;50261;51.150;4.470;2022-08-01T07:17:51;5.47;;;1.00;;
56381;SDS011;50261;51.150;4.470;2022-08-01T07:20:18;2.67;;;0.70;;
56381;SDS011;50261;51.150;4.470;2022-08-01T07:22:43;3.00;;;0.80;;
56381;SDS011;50261;51.150;4.470;2022-08-01T07:25:09;1.27;;;0.60;;
56381;SDS011;50261;51.150;4.470;2022-08-01T07:27:35;0.60;;;0.43;;
56381;SDS011;50261;51.150;4.470;2022-08-01T07:30:01;1.38;;;0.50;;
56381;SDS011;50261;51.150;4.470;2022-08-01T07:32:27;1.42;;;1.00;;
56381;SDS011;50261;51.150;4.470;2022-08-01T07:34:54;2.55;;;0.82;;
56381;SDS011;50261;51.150;4.470;2022-08-01T07:37:20;2.20;;;0.60;;
56381;SDS011;50261;51.150;4.470;2022-08-01T07:39:46;2.55;;;0.60;;
56381;SDS011;50261;51.150;4.470;2022-08-01T07:42:11;1.90;;;0.70;;
56381;SDS011;50261;51.150;4.470;2022-08-01T07:44:37;2.40;;;0.80;;
56381;SDS011;50261;51.150;4.470;2022-08-01T07:47:03;2.35;;;0.70;;
56381;SDS011;50261;51.150;4.470;2022-08-01T07:49:29;1.80;;;1.23;;
56381;SDS011;50261;51.150;4.470;2022-08-01T07:51:55;2.85;;;1.20;;
56381;SDS011;50261;51.150;4.470;2022-08-01T07:54:20;2.95;;;0.98;;
56381;SDS011;50261;51.150;4.470;2022-08-01T07:56:49;3.53;;;1.13;;
56381;SDS011;50261;51.150;4.470;2022-08-01T07:59:15;2.15;;;1.13;;
56381;SDS011;50261;51.150;4.470;2022-08-01T08:01:41;2.38;;;1.38;;
56381;SDS011;50261;51.150;4.470;2022-08-01T08:04:07;3.08;;;1.30;;
56381;SDS011;50261;51.150;4.470;2022-08-01T08:06:32;2.92;;;1.42;;
56381;SDS011;50261;51.150;4.470;2022-08-01T08:08:58;4.00;;;1.30;;
56381;SDS011;50261;51.150;4.470;2022-08-01T08:11:24;3.97;;;1.25;;
56381;SDS011;50261;51.150;4.470;2022-08-01T08:13:50;2.42;;;1.50;;
56381;SDS011;50261;51.150;4.470;2022-08-01T08:16:15;2.00;;;1.20;;
56381;SDS011;50261;51.150;4.470;2022-08-01T08:18:41;1.60;;;1.17;;
56381;SDS011;50261;51.150;4.470;2022-08-01T08:21:07;2.80;;;1.15;;
56381;SDS011;50261;51.150;4.470;2022-08-01T08:23:32;4.70;;;1.20;;
56381;SDS011;50261;51.150;4.470;2022-08-01T08:28:42;3.08;;;1.27;;
56381;SDS011;50261;51.150;4.470;2022-08-01T08:31:08;2.63;;;1.05;;
56381;SDS011;50261;51.150;4.470;2022-08-01T08:33:33;4.97;;;1.02;;
56381;SDS011;50261;51.150;4.470;2022-08-01T08:35:59;2.35;;;1.10;;
56381;SDS011;50261;51.150;4.470;2022-08-01T08:38:25;2.38;;;0.90;;
56381;SDS011;50261;51.150;4.470;2022-08-01T08:40:53;9.07;;;1.58;;
56381;SDS011;50261;51.150;4.470;2022-08-01T08:43:21;4.07;;;1.00;;
56381;SDS011;50261;51.150;4.470;2022-08-01T08:45:47;1.85;;;0.98;;
56381;SDS011;50261;51.150;4.470;2022-08-01T08:48:13;1.85;;;1.00;;
56381;SDS011;50261;51.150;4.470;2022-08-01T08:50:40;4.28;;;1.55;;
56381;SDS011;50261;51.150;4.470;2022-08-01T08:53:06;4.07;;;1.45;;
56381;SDS011;50261;51.150;4.470;2022-08-01T08:55:34;4.90;;;1.40;;
56381;SDS011;50261;51.150;4.470;2022-08-01T08:58:00;2.47;;;1.27;;
56381;SDS011;50261;51.150;4.470;2022-08-01T09:00:32;2.92;;;1.45;;
56381;SDS011;50261;51.150;4.470;2022-08-01T09:02:59;4.70;;;1.50;;
56381;SDS011;50261;51.150;4.470;2022-08-01T09:05:25;4.18;;;1.63;;
56381;SDS011;50261;51.150;4.470;2022-08-01T09:07:51;4.13;;;2.13;;
56381;SDS011;50261;51.150;4.470;2022-08-01T09:10:17;6.22;;;2.10;;
56381;SDS011;50261;51.150;4.470;2022-08-01T09:13:02;4.10;;;1.88;;
56381;SDS011;50261;51.150;4.470;2022-08-01T09:15:38;4.18;;;2.08;;
56381;SDS011;50261;51.150;4.470;2022-08-01T09:18:03;4.55;;;1.90;;
56381;SDS011;50261;51.150;4.470;2022-08-01T09:20:29;4.32;;;2.05;;
56381;SDS011;50261;51.150;4.470;2022-08-01T09:22:55;4.78;;;2.05;;
56381;SDS011;50261;51.150;4.470;2022-08-01T09:25:20;4.32;;;2.00;;
56381;SDS011;50261;51.150;4.470;2022-08-01T09:27:46;5.13;;;2.00;;
56381;SDS011;50261;51.150;4.470;2022-08-01T09:30:16;6.47;;;2.35;;
56381;SDS011;50261;51.150;4.470;2022-08-01T09:33:16;5.63;;;2.58;;
56381;SDS011;50261;51.150;4.470;2022-08-01T09:35:35;3.45;;;2.95;;
56381;SDS011;50261;51.150;4.470;2022-08-01T09:38:20;4.82;;;2.45;;
56381;SDS011;50261;51.150;4.470;2022-08-01T09:40:51;7.15;;;2.10;;
56381;SDS011;50261;51.150;4.470;2022-08-01T09:43:17;4.82;;;2.50;;
56381;SDS011;50261;51.150;4.470;2022-08-01T09:45:43;5.60;;;2.25;;
56381;SDS011;50261;51.150;4.470;2022-08-01T09:48:09;4.32;;;2.40;;
56381;SDS011;50261;51.150;4.470;2022-08-01T09:50:39;7.35;;;2.30;;
56381;SDS011;50261;51.150;4.470;2022-08-01T09:53:06;4.00;;;2.15;;
56381;SDS011;50261;51.150;4.470;2022-08-01T09:55:31;4.20;;;2.15;;
56381;SDS011;50261;51.150;4.470;2022-08-01T09:57:57;8.45;;;1.85;;
56381;SDS011;50261;51.150;4.470;2022-08-01T10:00:26;6.63;;;2.20;;
56381;SDS011;50261;51.150;4.470;2022-08-01T10:02:52;5.35;;;2.28;;
56381;SDS011;50261;51.150;4.470;2022-08-01T10:05:29;4.03;;;2.50;;
56381;SDS011;50261;51.150;4.470;2022-08-01T10:07:58;5.60;;;2.55;;
56381;SDS011;50261;51.150;4.470;2022-08-01T10:10:25;5.40;;;3.05;;
56381;SDS011;50261;51.150;4.470;2022-08-01T10:12:51;3.58;;;1.80;;
56381;SDS011;50261;51.150;4.470;2022-08-01T10:15:17;3.88;;;1.70;;
56381;SDS011;50261;51.150;4.470;2022-08-01T10:18:06;5.90;;;2.35;;
56381;SDS011;50261;51.150;4.470;2022-08-01T10:20:32;4.57;;;3.33;;
56381;SDS011;50261;51.150;4.470;2022-08-01T10:22:59;6.72;;;3.45;;
56381;SDS011;50261;51.150;4.470;2022-08-01T10:25:26;3.50;;;3.05;;
56381;SDS011;50261;51.150;4.470;2022-08-01T10:27:53;4.10;;;3.17;;
56381;SDS011;50261;51.150;4.470;2022-08-01T10:30:22;7.65;;;3.28;;
56381;SDS011;50261;51.150;4.470;2022-08-01T10:32:49;4.50;;;3.10;;
56381;SDS011;50261;51.150;4.470;2022-08-01T10:35:17;4.43;;;2.70;;
56381;SDS011;50261;51.150;4.470;2022-08-01T10:37:46;3.83;;;2.35;;
56381;SDS011;50261;51.150;4.470;2022-08-01T10:40:12;4.43;;;2.60;;
56381;SDS011;50261;51.150;4.470;2022-08-01T10:42:41;2.92;;;2.25;;
56381;SDS011;50261;51.150;4.470;2022-08-01T10:45:08;3.60;;;2.00;;
56381;SDS011;50261;51.150;4.470;2022-08-01T10:47:42;6.80;;;2.85;;
56381;SDS011;50261;51.150;4.470;2022-08-01T10:52:36;5.65;;;2.70;;
56381;SDS011;50261;51.150;4.470;2022-08-01T10:55:05;2.80;;;2.30;;
56381;SDS011;50261;51.150;4.470;2022-08-01T10:57:41;4.13;;;2.15;;
56381;SDS011;50261;51.150;4.470;2022-08-01T11:00:07;4.65;;;2.20;;
56381;SDS011;50261;51.150;4.470;2022-08-01T11:02:33;6.50;;;2.67;;
56381;SDS011;50261;51.150;4.470;2022-08-01T11:05:12;5.63;;;2.83;;
56381;SDS011;50261;51.150;4.470;2022-08-01T11:07:48;4.63;;;2.72;;
56381;SDS011;50261;51.150;4.470;2022-08-01T11:10:36;3.50;;;1.80;;
56381;SDS011;50261;51.150;4.470;2022-08-01T11:13:02;1.75;;;1.30;;
56381;SDS011;50261;51.150;4.470;2022-08-01T11:15:30;2.65;;;1.42;;
56381;SDS011;50261;51.150;4.470;2022-08-01T11:17:57;3.75;;;1.60;;
56381;SDS011;50261;51.150;4.470;2022-08-01T11:20:24;2.90;;;1.35;;
56381;SDS011;50261;51.150;4.470;2022-08-01T11:30:44;5.55;;;1.67;;
56381;SDS011;50261;51.150;4.470;2022-08-01T11:33:10;4.95;;;1.60;;
56381;SDS011;50261;51.150;4.470;2022-08-01T11:35:36;3.92;;;1.27;;
56381;SDS011;50261;51.150;4.470;2022-08-01T11:40:46;2.83;;;1.10;;
56381;SDS011;50261;51.150;4.470;2022-08-01T11:48:23;2.55;;;1.30;;
56381;SDS011;50261;51.150;4.470;2022-08-01T11:50:49;3.97;;;1.00;;
56381;SDS011;50261;51.150;4.470;2022-08-01T11:53:16;2.08;;;0.90;;
56381;SDS011;50261;51.150;4.470;2022-08-01T11:55:48;3.60;;;1.30;;
56381;SDS011;50261;51.150;4.470;2022-08-01T11:58:14;3.95;;;1.05;;
56381;SDS011;50261;51.150;4.470;2022-08-01T12:00:40;2.80;;;1.00;;
56381;SDS011;50261;51.150;4.470;2022-08-01T12:03:07;3.95;;;1.35;;
56381;SDS011;50261;51.150;4.470;2022-08-01T12:05:34;6.10;;;1.50;;
56381;SDS011;50261;51.150;4.470;2022-08-01T12:08:02;3.33;;;1.15;;
56381;SDS011;50261;51.150;4.470;2022-08-01T12:10:29;3.38;;;1.33;;
56381;SDS011;50261;51.150;4.470;2022-08-01T12:13:02;4.38;;;1.40;;
56381;SDS011;50261;51.150;4.470;2022-08-01T12:15:29;7.25;;;2.05;;
56381;SDS011;50261;51.150;4.470;2022-08-01T12:17:56;4.25;;;1.92;;
56381;SDS011;50261;51.150;4.470;2022-08-01T12:20:23;5.30;;;1.50;;
56381;SDS011;50261;51.150;4.470;2022-08-01T12:22:59;6.75;;;2.03;;
56381;SDS011;50261;51.150;4.470;2022-08-01T12:25:25;3.50;;;1.77;;
56381;SDS011;50261;51.150;4.470;2022-08-01T12:27:51;4.10;;;1.60;;
56381;SDS011;50261;51.150;4.470;2022-08-01T12:30:18;4.18;;;1.60;;
56381;SDS011;50261;51.150;4.470;2022-08-01T12:32:47;6.78;;;1.73;;
56381;SDS011;50261;51.150;4.470;2022-08-01T12:35:14;4.80;;;1.50;;
56381;SDS011;50261;51.150;4.470;2022-08-01T12:37:41;3.20;;;1.20;;
56381;SDS011;50261;51.150;4.470;2022-08-01T12:40:11;2.85;;;1.45;;
56381;SDS011;50261;51.150;4.470;2022-08-01T12:42:38;4.75;;;1.60;;
56381;SDS011;50261;51.150;4.470;2022-08-01T12:45:05;8.90;;;1.52;;
56381;SDS011;50261;51.150;4.470;2022-08-01T12:47:32;6.75;;;1.38;;
56381;SDS011;50261;51.150;4.470;2022-08-01T12:49:58;2.65;;;1.42;;
56381;SDS011;50261;51.150;4.470;2022-08-01T12:52:24;4.47;;;1.50;;
56381;SDS011;50261;51.150;4.470;2022-08-01T12:54:59;6.28;;;1.75;;
56381;SDS011;50261;51.150;4.470;2022-08-01T12:57:25;6.25;;;1.40;;
56381;SDS011;50261;51.150;4.470;2022-08-01T12:59:52;3.40;;;1.35;;
56381;SDS011;50261;51.150;4.470;2022-08-01T13:02:18;4.00;;;1.38;;
56381;SDS011;50261;51.150;4.470;2022-08-01T13:04:50;3.03;;;1.02;;
56381;SDS011;50261;51.150;4.470;2022-08-01T13:07:17;2.43;;;1.00;;
56381;SDS011;50261;51.150;4.470;2022-08-01T13:09:49;2.95;;;1.00;;
56381;SDS011;50261;51.150;4.470;2022-08-01T13:14:41;4.47;;;1.17;;
56381;SDS011;50261;51.150;4.470;2022-08-01T13:17:06;4.22;;;1.50;;
56381;SDS011;50261;51.150;4.470;2022-08-01T13:19:42;2.90;;;1.30;;
56381;SDS011;50261;51.150;4.470;2022-08-01T13:22:08;4.60;;;1.33;;
56381;SDS011;50261;51.150;4.470;2022-08-01T13:24:33;2.75;;;1.08;;
56381;SDS011;50261;51.150;4.470;2022-08-01T13:27:00;4.43;;;1.30;;
56381;SDS011;50261;51.150;4.470;2022-08-01T13:29:38;4.20;;;1.00;;
56381;SDS011;50261;51.150;4.470;2022-08-01T13:32:12;1.52;;;0.82;;
56381;SDS011;50261;51.150;4.470;2022-08-01T13:34:38;6.45;;;1.77;;
56381;SDS011;50261;51.150;4.470;2022-08-01T13:37:04;3.00;;;1.00;;
56381;SDS011;50261;51.150;4.470;2022-08-01T13:39:33;5.07;;;1.13;;
56381;SDS011;50261;51.150;4.470;2022-08-01T13:42:10;2.80;;;1.00;;
56381;SDS011;50261;51.150;4.470;2022-08-01T13:44:36;2.28;;;1.10;;
56381;SDS011;50261;51.150;4.470;2022-08-01T13:47:03;4.53;;;1.10;;
56381;SDS011;50261;51.150;4.470;2022-08-01T13:49:29;5.32;;;1.30;;
56381;SDS011;50261;51.150;4.470;2022-08-01T13:51:55;3.75;;;1.23;;
56381;SDS011;50261;51.150;4.470;2022-08-01T13:54:20;10.00;;;2.00;;
56381;SDS011;50261;51.150;4.470;2022-08-01T13:56:46;4.05;;;1.48;;
56381;SDS011;50261;51.150;4.470;2022-08-01T13:59:12;4.90;;;1.48;;
56381;SDS011;50261;51.150;4.470;2022-08-01T14:01:38;3.88;;;1.30;;
56381;SDS011;50261;51.150;4.470;2022-08-01T14:04:04;2.85;;;0.95;;
56381;SDS011;50261;51.150;4.470;2022-08-01T14:06:30;2.20;;;0.80;;
56381;SDS011;50261;51.150;4.470;2022-08-01T14:08:56;4.43;;;0.80;;
56381;SDS011;50261;51.150;4.470;2022-08-01T14:11:22;4.15;;;1.13;;
56381;SDS011;50261;51.150;4.470;2022-08-01T14:13:47;2.92;;;1.00;;
56381;SDS011;50261;51.150;4.470;2022-08-01T14:16:13;4.88;;;1.65;;
56381;SDS011;50261;51.150;4.470;2022-08-01T14:18:39;5.53;;;1.30;;
56381;SDS011;50261;51.150;4.470;2022-08-01T14:21:04;4.53;;;1.40;;
56381;SDS011;50261;51.150;4.470;2022-08-01T14:23:30;3.90;;;1.25;;
56381;SDS011;50261;51.150;4.470;2022-08-01T14:25:56;4.88;;;1.23;;
56381;SDS011;50261;51.150;4.470;2022-08-01T14:28:21;4.95;;;1.40;;
56381;SDS011;50261;51.150;4.470;2022-08-01T14:30:48;5.55;;;1.52;;
56381;SDS011;50261;51.150;4.470;2022-08-01T14:33:14;4.32;;;1.17;;
56381;SDS011;50261;51.150;4.470;2022-08-01T14:35:40;2.97;;;1.20;;
56381;SDS011;50261;51.150;4.470;2022-08-01T14:38:06;4.80;;;1.60;;
56381;SDS011;50261;51.150;4.470;2022-08-01T14:40:33;3.00;;;1.30;;
56381;SDS011;50261;51.150;4.470;2022-08-01T14:42:58;3.17;;;1.42;;
56381;SDS011;50261;51.150;4.470;2022-08-01T14:45:26;4.70;;;1.45;;
56381;SDS011;50261;51.150;4.470;2022-08-01T14:47:52;6.30;;;1.58;;
56381;SDS011;50261;51.150;4.470;2022-08-01T14:50:18;3.75;;;1.45;;
56381;SDS011;50261;51.150;4.470;2022-08-01T14:52:43;3.17;;;1.27;;
56381;SDS011;50261;51.150;4.470;2022-08-01T14:55:10;6.60;;;1.40;;
56381;SDS011;50261;51.150;4.470;2022-08-01T14:57:36;5.82;;;1.25;;
56381;SDS011;50261;51.150;4.470;2022-08-01T15:00:03;1.92;;;0.80;;
56381;SDS011;50261;51.150;4.470;2022-08-01T15:02:29;1.60;;;0.93;;
56381;SDS011;50261;51.150;4.470;2022-08-01T15:04:55;4.15;;;1.10;;
56381;SDS011;50261;51.150;4.470;2022-08-01T15:07:21;5.20;;;1.48;;
56381;SDS011;50261;51.150;4.470;2022-08-01T15:09:47;2.38;;;1.30;;
56381;SDS011;50261;51.150;4.470;2022-08-01T15:12:13;1.92;;;1.20;;
56381;SDS011;50261;51.150;4.470;2022-08-01T15:14:38;2.28;;;1.00;;
56381;SDS011;50261;51.150;4.470;2022-08-01T15:17:17;3.17;;;0.90;;
56381;SDS011;50261;51.150;4.470;2022-08-01T15:19:44;3.45;;;1.08;;
56381;SDS011;50261;51.150;4.470;2022-08-01T15:22:10;1.80;;;0.88;;
56381;SDS011;50261;51.150;4.470;2022-08-01T15:24:35;1.63;;;0.80;;
56381;SDS011;50261;51.150;4.470;2022-08-01T15:27:01;3.40;;;1.00;;
56381;SDS011;50261;51.150;4.470;2022-08-01T15:29:27;4.15;;;1.25;;
56381;SDS011;50261;51.150;4.470;2022-08-01T15:31:53;3.35;;;1.20;;
56381;SDS011;50261;51.150;4.470;2022-08-01T15:34:18;4.45;;;1.10;;
56381;SDS011;50261;51.150;4.470;2022-08-01T15:36:44;1.85;;;1.00;;
56381;SDS011;50261;51.150;4.470;2022-08-01T15:39:10;2.38;;;1.00;;
56381;SDS011;50261;51.150;4.470;2022-08-01T15:41:36;2.45;;;1.08;;
56381;SDS011;50261;51.150;4.470;2022-08-01T15:44:02;1.73;;;0.90;;
56381;SDS011;50261;51.150;4.470;2022-08-01T15:46:28;1.52;;;0.77;;
56381;SDS011;50261;51.150;4.470;2022-08-01T15:48:53;2.55;;;0.90;;
56381;SDS011;50261;51.150;4.470;2022-08-01T15:51:19;2.75;;;1.02;;
56381;SDS011;50261;51.150;4.470;2022-08-01T15:53:45;1.88;;;0.88;;
56381;SDS011;50261;51.150;4.470;2022-08-01T15:56:12;3.22;;;1.10;;
56381;SDS011;50261;51.150;4.470;2022-08-01T15:58:38;4.75;;;1.27;;
56381;SDS011;50261;51.150;4.470;2022-08-01T16:01:03;3.50;;;1.15;;
56381;SDS011;50261;51.150;4.470;2022-08-01T16:03:29;3.00;;;0.85;;
56381;SDS011;50261;51.150;4.470;2022-08-01T16:05:55;4.72;;;0.90;;
56381;SDS011;50261;51.150;4.470;2022-08-01T16:08:21;2.17;;;1.00;;
56381;SDS011;50261;51.150;4.470;2022-08-01T16:10:46;1.90;;;1.00;;
56381;SDS011;50261;51.150;4.470;2022-08-01T16:13:12;2.25;;;1.02;;
56381;SDS011;50261;51.150;4.470;2022-08-01T16:15:38;3.67;;;1.00;;
56381;SDS011;50261;51.150;4.470;2022-08-01T16:18:05;1.73;;;0.90;;
56381;SDS011;50261;51.150;4.470;2022-08-01T16:20:31;1.67;;;0.85;;
56381;SDS011;50261;51.150;4.470;2022-08-01T16:22:56;2.50;;;0.90;;
56381;SDS011;50261;51.150;4.470;2022-08-01T16:25:22;3.08;;;1.10;;
56381;SDS011;50261;51.150;4.470;2022-08-01T16:27:48;3.95;;;1.08;;
56381;SDS011;50261;51.150;4.470;2022-08-01T16:30:14;3.50;;;0.93;;
56381;SDS011;50261;51.150;4.470;2022-08-01T16:32:39;3.10;;;1.10;;
56381;SDS011;50261;51.150;4.470;2022-08-01T16:35:05;3.10;;;1.00;;
56381;SDS011;50261;51.150;4.470;2022-08-01T16:37:31;3.20;;;1.50;;
56381;SDS011;50261;51.150;4.470;2022-08-01T16:39:57;5.00;;;4.50;;
56381;SDS011;50261;51.150;4.470;2022-08-01T16:42:22;5.13;;;1.20;;
56381;SDS011;50261;51.150;4.470;2022-08-01T16:44:48;4.13;;;1.10;;
56381;SDS011;50261;51.150;4.470;2022-08-01T16:47:14;3.38;;;1.30;;
56381;SDS011;50261;51.150;4.470;2022-08-01T16:49:39;3.20;;;1.10;;
56381;SDS011;50261;51.150;4.470;2022-08-01T16:52:05;4.22;;;1.15;;
56381;SDS011;50261;51.150;4.470;2022-08-01T16:54:31;3.08;;;1.10;;
56381;SDS011;50261;51.150;4.470;2022-08-01T16:56:57;3.15;;;1.00;;
56381;SDS011;50261;51.150;4.470;2022-08-01T16:59:25;3.67;;;1.05;;
56381;SDS011;50261;51.150;4.470;2022-08-01T17:01:51;6.22;;;2.88;;
56381;SDS011;50261;51.150;4.470;2022-08-01T17:04:16;3.72;;;1.60;;
56381;SDS011;50261;51.150;4.470;2022-08-01T17:06:42;2.60;;;1.20;;
56381;SDS011;50261;51.150;4.470;2022-08-01T17:09:09;2.85;;;1.23;;
56381;SDS011;50261;51.150;4.470;2022-08-01T17:11:35;3.53;;;1.48;;
56381;SDS011;50261;51.150;4.470;2022-08-01T17:14:01;3.03;;;1.25;;
56381;SDS011;50261;51.150;4.470;2022-08-01T17:16:26;2.92;;;1.30;;
56381;SDS011;50261;51.150;4.470;2022-08-01T17:18:52;4.80;;;1.27;;
56381;SDS011;50261;51.150;4.470;2022-08-01T17:21:18;2.50;;;1.20;;
56381;SDS011;50261;51.150;4.470;2022-08-01T17:23:43;3.60;;;1.40;;
56381;SDS011;50261;51.150;4.470;2022-08-01T17:26:09;4.30;;;1.40;;
56381;SDS011;50261;51.150;4.470;2022-08-01T17:28:35;3.65;;;1.25;;
56381;SDS011;50261;51.150;4.470;2022-08-01T17:31:01;3.33;;;1.20;;
56381;SDS011;50261;51.150;4.470;2022-08-01T17:33:26;5.15;;;1.60;;
56381;SDS011;50261;51.150;4.470;2022-08-01T17:35:52;4.70;;;1.25;;
56381;SDS011;50261;51.150;4.470;2022-08-01T17:38:18;3.45;;;1.33;;
56381;SDS011;50261;51.150;4.470;2022-08-01T17:40:44;5.35;;;1.83;;
56381;SDS011;50261;51.150;4.470;2022-08-01T17:43:10;4.03;;;1.67;;
56381;SDS011;50261;51.150;4.470;2022-08-01T17:45:35;3.88;;;1.73;;
56381;SDS011;50261;51.150;4.470;2022-08-01T17:48:01;3.40;;;1.17;;
56381;SDS011;50261;51.150;4.470;2022-08-01T17:50:27;3.85;;;1.50;;
56381;SDS011;50261;51.150;4.470;2022-08-01T17:52:52;3.65;;;1.48;;
56381;SDS011;50261;51.150;4.470;2022-08-01T17:55:18;4.70;;;2.25;;
56381;SDS011;50261;51.150;4.470;2022-08-01T17:57:44;3.83;;;1.40;;
56381;SDS011;50261;51.150;4.470;2022-08-01T18:00:10;7.10;;;1.50;;
56381;SDS011;50261;51.150;4.470;2022-08-01T18:02:35;3.88;;;1.20;;
56381;SDS011;50261;51.150;4.470;2022-08-01T18:05:01;5.55;;;1.25;;
56381;SDS011;50261;51.150;4.470;2022-08-01T18:07:28;3.17;;;1.38;;
56381;SDS011;50261;51.150;4.470;2022-08-01T18:09:54;3.25;;;1.48;;
56381;SDS011;50261;51.150;4.470;2022-08-01T18:12:20;3.72;;;1.40;;
56381;SDS011;50261;51.150;4.470;2022-08-01T18:14:45;4.63;;;1.80;;
56381;SDS011;50261;51.150;4.470;2022-08-01T18:17:11;5.88;;;1.42;;
56381;SDS011;50261;51.150;4.470;2022-08-01T18:19:38;5.57;;;1.50;;
56381;SDS011;50261;51.150;4.470;2022-08-01T18:22:04;2.45;;;1.17;;
56381;SDS011;50261;51.150;4.470;2022-08-01T18:24:30;4.38;;;1.20;;
56381;SDS011;50261;51.150;4.470;2022-08-01T18:26:55;2.92;;;1.27;;
56381;SDS011;50261;51.150;4.470;2022-08-01T18:29:23;3.88;;;1.60;;
56381;SDS011;50261;51.150;4.470;2022-08-01T18:31:48;2.88;;;1.27;;
56381;SDS011;50261;51.150;4.470;2022-08-01T18:34:16;4.78;;;1.25;;
56381;SDS011;50261;51.150;4.470;2022-08-01T18:36:43;4.40;;;1.45;;
56381;SDS011;50261;51.150;4.470;2022-08-01T18:39:08;4.43;;;1.50;;
56381;SDS011;50261;51.150;4.470;2022-08-01T18:41:34;3.92;;;1.70;;
56381;SDS011;50261;51.150;4.470;2022-08-01T18:44:00;3.17;;;1.05;;
56381;SDS011;50261;51.150;4.470;2022-08-01T18:46:26;3.72;;;1.50;;
56381;SDS011;50261;51.150;4.470;2022-08-01T18:48:52;6.32;;;1.58;;
56381;SDS011;50261;51.150;4.470;2022-08-01T18:51:17;7.18;;;1.30;;
56381;SDS011;50261;51.150;4.470;2022-08-01T18:53:43;3.08;;;1.30;;
56381;SDS011;50261;51.150;4.470;2022-08-01T18:56:09;4.95;;;1.45;;
56381;SDS011;50261;51.150;4.470;2022-08-01T18:58:38;5.93;;;1.83;;
56381;SDS011;50261;51.150;4.470;2022-08-01T19:01:04;3.83;;;1.58;;
56381;SDS011;50261;51.150;4.470;2022-08-01T19:03:30;6.22;;;1.67;;
56381;SDS011;50261;51.150;4.470;2022-08-01T19:05:55;3.28;;;1.27;;
56381;SDS011;50261;51.150;4.470;2022-08-01T19:08:21;4.07;;;1.58;;
56381;SDS011;50261;51.150;4.470;2022-08-01T19:10:47;4.57;;;1.63;;
56381;SDS011;50261;51.150;4.470;2022-08-01T19:13:13;3.30;;;1.40;;
56381;SDS011;50261;51.150;4.470;2022-08-01T19:15:41;7.32;;;1.55;;
56381;SDS011;50261;51.150;4.470;2022-08-01T19:18:07;3.97;;;1.42;;
56381;SDS011;50261;51.150;4.470;2022-08-01T19:20:34;3.97;;;1.38;;
56381;SDS011;50261;51.150;4.470;2022-08-01T19:23:05;9.80;;;1.80;;
56381;SDS011;50261;51.150;4.470;2022-08-01T19:25:50;3.22;;;1.27;;
56381;SDS011;50261;51.150;4.470;2022-08-01T19:28:17;3.33;;;1.40;;
56381;SDS011;50261;51.150;4.470;2022-08-01T19:30:44;6.18;;;1.60;;
56381;SDS011;50261;51.150;4.470;2022-08-01T19:33:10;5.10;;;1.33;;
56381;SDS011;50261;51.150;4.470;2022-08-01T19:35:36;6.63;;;1.70;;
56381;SDS011;50261;51.150;4.470;2022-08-01T19:38:02;5.53;;;1.25;;
56381;SDS011;50261;51.150;4.470;2022-08-01T19:40:28;4.43;;;1.50;;
56381;SDS011;50261;51.150;4.470;2022-08-01T19:42:54;5.95;;;1.65;;
56381;SDS011;50261;51.150;4.470;2022-08-01T19:45:20;7.78;;;2.00;;
56381;SDS011;50261;51.150;4.470;2022-08-01T19:47:46;5.78;;;1.77;;
56381;SDS011;50261;51.150;4.470;2022-08-01T19:50:12;4.97;;;1.42;;
56381;SDS011;50261;51.150;4.470;2022-08-01T19:52:38;4.93;;;1.40;;
56381;SDS011;50261;51.150;4.470;2022-08-01T19:55:04;8.23;;;1.65;;
56381;SDS011;50261;51.150;4.470;2022-08-01T19:57:30;6.28;;;1.35;;
56381;SDS011;50261;51.150;4.470;2022-08-01T19:59:56;4.78;;;1.33;;
56381;SDS011;50261;51.150;4.470;2022-08-01T20:02:22;4.75;;;1.45;;
56381;SDS011;50261;51.150;4.470;2022-08-01T20:04:49;3.70;;;1.33;;
56381;SDS011;50261;51.150;4.470;2022-08-01T20:07:15;3.83;;;1.52;;
56381;SDS011;50261;51.150;4.470;2022-08-01T20:09:41;5.20;;;1.67;;
56381;SDS011;50261;51.150;4.470;2022-08-01T20:12:09;7.05;;;3.08;;
56381;SDS011;50261;51.150;4.470;2022-08-01T20:14:35;3.45;;;1.38;;
56381;SDS011;50261;51.150;4.470;2022-08-01T20:17:00;5.97;;;1.55;;
56381;SDS011;50261;51.150;4.470;2022-08-01T20:19:26;3.20;;;1.40;;
56381;SDS011;50261;51.150;4.470;2022-08-01T20:21:58;4.03;;;1.50;;
56381;SDS011;50261;51.150;4.470;2022-08-01T20:24:26;5.18;;;1.23;;
56381;SDS011;50261;51.150;4.470;2022-08-01T20:26:51;3.95;;;1.40;;
56381;SDS011;50261;51.150;4.470;2022-08-01T20:29:18;5.10;;;1.50;;
56381;SDS011;50261;51.150;4.470;2022-08-01T20:31:47;2.83;;;1.70;;
56381;SDS011;50261;51.150;4.470;2022-08-01T20:34:16;4.75;;;2.08;;
56381;SDS011;50261;51.150;4.470;2022-08-01T20:36:43;3.33;;;1.40;;
56381;SDS011;50261;51.150;4.470;2022-08-01T20:39:08;3.17;;;1.52;;
56381;SDS011;50261;51.150;4.470;2022-08-01T20:41:36;4.78;;;1.40;;
56381;SDS011;50261;51.150;4.470;2022-08-01T20:44:03;4.50;;;1.50;;
56381;SDS011;50261;51.150;4.470;2022-08-01T20:46:29;4.07;;;1.30;;
56381;SDS011;50261;51.150;4.470;2022-08-01T20:48:56;4.93;;;1.67;;
56381;SDS011;50261;51.150;4.470;2022-08-01T20:51:26;5.57;;;1.63;;
56381;SDS011;50261;51.150;4.470;2022-08-01T20:53:52;3.65;;;1.70;;
56381;SDS011;50261;51.150;4.470;2022-08-01T20:56:21;3.20;;;1.45;;
56381;SDS011;50261;51.150;4.470;2022-08-01T21:01:25;5.95;;;1.92;;
56381;SDS011;50261;51.150;4.470;2022-08-01T21:04:13;5.72;;;1.67;;
56381;SDS011;50261;51.150;4.470;2022-08-01T21:06:40;6.03;;;1.40;;
56381;SDS011;50261;51.150;4.470;2022-08-01T21:09:06;3.45;;;1.38;;
56381;SDS011;50261;51.150;4.470;2022-08-01T21:11:37;4.57;;;1.42;;
56381;SDS011;50261;51.150;4.470;2022-08-01T21:14:03;5.80;;;1.70;;
56381;SDS011;50261;51.150;4.470;2022-08-01T21:16:30;5.05;;;1.45;;
56381;SDS011;50261;51.150;4.470;2022-08-01T21:19:11;5.50;;;1.77;;